Time;durP1;ratioP1;P1;durP2;ratioP2;P2;SDS_P1;SDS_P2;PMS_P1;PMS_P2;Temp;Humidity;BMP_temperature;BMP_pressure;BME280_temperature;BME280_humidity;BME280_pressure;Samples;Min_cycle;Max_cycle;Signal;HPM_P1;HPM_P2
2022/01/20 00:00:21;;;;;;;;;17.25;15.75;;;;;8.00;75.49;101906.28;5046428;28;45531;-73
2022/01/20 00:02:58;;;;;;;;;19.00;19.00;;;;;7.99;75.46;101904.50;5048572;28;46557;-72
2022/01/20 00:05:39;;;;;;;;;14.50;14.50;;;;;8.00;75.29;101899.41;5046223;28;46236;-72
2022/01/20 00:08:14;;;;;;;;;14.25;13.50;;;;;8.02;75.13;101897.78;5046140;28;45304;-72
2022/01/20 00:27:10;;;;;;;;;14.00;12.75;;;;;8.03;75.16;101889.16;5050967;28;45279;-71
2022/01/20 00:32:28;;;;;;;;;10.00;9.50;;;;;8.04;75.50;101887.44;5047757;28;45448;-72
2022/01/20 00:37:26;;;;;;;;;9.00;9.00;;;;;7.99;75.43;101886.28;5045930;28;45464;-71
2022/01/20 00:39:52;;;;;;;;;8.75;7.25;;;;;8.02;75.18;101889.97;5047888;28;45350;-71
2022/01/20 00:42:19;;;;;;;;;7.75;7.00;;;;;7.93;74.37;101869.47;5045737;28;45457;-71
2022/01/20 00:44:45;;;;;;;;;13.75;10.75;;;;;8.07;75.18;101890.25;5048224;28;45525;-71
2022/01/20 00:47:12;;;;;;;;;13.00;11.25;;;;;8.06;74.98;101891.97;5045972;28;46207;-71
2022/01/20 00:49:38;;;;;;;;;11.50;10.25;;;;;8.08;74.49;101890.34;5046502;28;45427;-71
2022/01/20 00:52:05;;;;;;;;;9.00;9.00;;;;;8.08;74.72;101889.47;5047921;28;45478;-73
2022/01/20 00:54:31;;;;;;;;;14.75;13.00;;;;;8.07;75.00;101878.13;5046143;28;45429;-71
2022/01/20 00:56:57;;;;;;;;;27.00;25.50;;;;;7.96;74.83;101856.66;5046392;28;46230;-71
2022/01/20 00:59:23;;;;;;;;;31.00;29.25;;;;;8.08;75.17;101876.47;5047413;28;45381;-72
2022/01/20 01:01:49;;;;;;;;;22.25;20.50;;;;;8.08;75.35;101879.94;5045837;28;45350;-72
2022/01/20 01:04:15;;;;;;;;;14.25;12.25;;;;;7.99;75.17;101868.97;5046008;28;45361;-71
2022/01/20 01:09:12;;;;;;;;;9.50;9.50;;;;;8.07;74.81;101867.72;5044828;28;45557;-72
2022/01/20 01:11:39;;;;;;;;;20.00;17.25;;;;;8.08;74.95;101874.75;5038035;28;45304;-72
2022/01/20 01:14:05;;;;;;;;;8.00;8.00;;;;;8.11;74.54;101872.31;5038348;28;45382;-72
2022/01/20 01:24:42;;;;;;;;;2.00;2.00;;;;;8.09;74.25;101852.22;5038231;28;45308;-72
2022/01/20 01:27:09;;;;;;;;;3.75;3.75;;;;;8.08;74.51;101853.91;5037848;28;46289;-71
2022/01/20 01:32:23;;;;;;;;;7.00;4.75;;;;;8.06;74.63;101852.03;5038102;28;45302;-72
2022/01/20 01:34:52;;;;;;;;;7.00;6.50;;;;;8.05;74.78;101858.94;5038097;28;45414;-71
2022/01/20 01:39:50;;;;;;;;;7.25;7.00;;;;;7.88;74.74;101865.72;5037833;28;45450;-72
2022/01/20 01:42:23;;;;;;;;;8.00;7.75;;;;;7.84;75.23;101871.53;5037663;28;45528;-72
2022/01/20 01:44:49;;;;;;;;;8.75;8.50;;;;;7.80;75.53;101876.41;5038261;28;45363;-72
2022/01/20 01:47:14;;;;;;;;;10.00;9.75;;;;;7.81;74.99;101873.03;5037443;28;45634;-71
2022/01/20 01:49:40;;;;;;;;;8.50;8.00;;;;;7.81;75.48;101871.31;5037622;28;45429;-71
2022/01/20 01:52:06;;;;;;;;;6.25;5.00;;;;;7.80;75.24;101879.03;5037762;28;45408;-71
2022/01/20 01:54:32;;;;;;;;;7.00;4.75;;;;;7.73;75.33;101860.44;5037863;28;45299;-71
2022/01/20 01:57:01;;;;;;;;;9.50;7.00;;;;;7.87;75.21;101883.81;5037198;28;46042;-71
2022/01/20 01:59:27;;;;;;;;;6.00;6.00;;;;;7.92;74.87;101885.03;5036964;28;45454;-71
2022/01/20 02:01:52;;;;;;;;;8.25;7.00;;;;;7.94;74.98;101880.81;5037599;28;45596;-72
2022/01/20 02:04:21;;;;;;;;;7.00;6.00;;;;;7.93;75.03;101879.88;5037684;28;45601;-71
2022/01/20 02:20:14;;;;;;;;;6.75;5.25;;;;;8.01;74.92;101877.75;5036864;28;45461;-73
2022/01/20 02:22:43;;;;;;;;;4.25;3.50;;;;;8.02;74.29;101874.38;5052448;28;45355;-71
2022/01/20 02:25:29;;;;;;;;;15.25;12.50;;;;;8.04;74.59;101866.63;5037090;28;45496;-72
2022/01/20 02:27:56;;;;;;;;;14.50;13.50;;;;;8.09;74.41;101870.44;5037124;28;46318;-72
2022/01/20 02:30:25;;;;;;;;;11.25;9.50;;;;;8.09;74.85;101862.63;5037125;28;45347;-71
2022/01/20 02:32:55;;;;;;;;;9.25;9.00;;;;;8.06;74.80;101855.53;5035851;28;45370;-72
2022/01/20 02:35:24;;;;;;;;;8.50;7.25;;;;;8.07;74.62;101852.09;5037333;28;45288;-72
2022/01/20 02:37:55;;;;;;;;;7.50;7.00;;;;;8.06;74.80;101855.53;5036531;28;45963;-71
2022/01/20 02:45:48;;;;;;;;;6.75;5.75;;;;;8.04;74.90;101853.63;5036920;28;45431;-71
2022/01/20 02:48:14;;;;;;;;;8.00;6.25;;;;;8.00;75.06;101849.03;5036441;28;45338;-71
2022/01/20 02:50:40;;;;;;;;;7.00;4.00;;;;;7.99;74.95;101848.16;5036745;28;45414;-73
2022/01/20 02:53:05;;;;;;;;;3.75;3.75;;;;;7.99;74.83;101840.34;5036992;28;45364;-72
2022/01/20 02:55:31;;;;;;;;;4.75;4.00;;;;;7.98;75.08;101841.16;5036795;28;45386;-72
2022/01/20 02:57:57;;;;;;;;;5.25;4.25;;;;;7.96;75.02;101832.38;5036857;28;46048;-72
2022/01/20 03:00:22;;;;;;;;;5.00;4.00;;;;;7.95;75.30;101828.84;5036851;28;45410;-72
2022/01/20 03:02:49;;;;;;;;;3.50;3.00;;;;;7.94;75.20;101828.78;5036733;28;45373;-71
2022/01/20 03:05:15;;;;;;;;;6.75;6.00;;;;;7.90;75.47;101826.78;5036941;28;45386;-71
2022/01/20 03:07:40;;;;;;;;;8.00;5.75;;;;;7.73;75.58;101799.72;5036351;28;45821;-72
2022/01/20 03:10:07;;;;;;;;;4.50;4.00;;;;;7.87;74.73;101830.06;5036478;28;45225;-71
2022/01/20 03:12:33;;;;;;;;;7.25;7.00;;;;;7.82;75.54;101820.19;5036611;28;45510;-72
2022/01/20 03:14:59;;;;;;;;;6.00;5.75;;;;;7.82;75.92;101807.19;5036659;28;45518;-72
2022/01/20 03:17:24;;;;;;;;;6.50;4.00;;;;;7.73;75.76;101792.81;5036494;28;45407;-72
2022/01/20 03:19:50;;;;;;;;;6.00;4.75;;;;;7.73;75.73;101791.91;5036451;28;45503;-71
2022/01/20 03:22:16;;;;;;;;;5.00;5.00;;;;;7.75;75.56;101795.50;5036645;28;45455;-72
2022/01/20 03:24:42;;;;;;;;;6.50;6.00;;;;;7.71;75.43;101789.22;5036485;28;45533;-71
2022/01/20 03:27:08;;;;;;;;;4.00;4.00;;;;;7.64;76.10;101787.06;5036067;28;45986;-71
2022/01/20 03:29:34;;;;;;;;;6.50;5.50;;;;;7.65;76.24;101814.84;5036201;28;45630;-72
2022/01/20 03:32:00;;;;;;;;;8.25;7.00;;;;;7.61;76.85;101818.06;5036392;28;45488;-71
2022/01/20 03:34:25;;;;;;;;;11.25;9.00;;;;;7.53;76.56;101807.19;5036738;28;45285;-74
2022/01/20 03:36:52;;;;;;;;;7.00;7.00;;;;;7.60;75.99;101810.16;5036095;28;45316;-71
2022/01/20 03:39:18;;;;;;;;;8.25;7.00;;;;;7.60;76.23;101799.75;5036237;28;45391;-71
2022/01/20 03:41:44;;;;;;;;;7.00;5.75;;;;;7.60;76.05;101803.28;5036113;28;45415;-73
2022/01/20 03:44:09;;;;;;;;;6.00;6.00;;;;;7.60;76.19;101805.88;5038748;28;45203;-72
2022/01/20 03:46:35;;;;;;;;;6.50;6.00;;;;;7.62;76.51;101809.47;5039255;28;46031;-73
2022/01/20 03:49:25;;;;;;;;;4.50;4.50;;;;;7.56;75.47;101798.69;5039212;28;45316;-71
2022/01/20 03:51:50;;;;;;;;;4.00;4.00;;;;;7.58;75.66;101804.88;5039555;28;45554;-72
2022/01/20 03:54:16;;;;;;;;;6.00;4.25;;;;;7.60;76.12;101812.75;5039415;28;45232;-71
2022/01/20 03:56:41;;;;;;;;;6.75;6.75;;;;;7.59;75.77;101814.47;5039118;28;45397;-72
2022/01/20 03:59:07;;;;;;;;;4.50;4.50;;;;;7.56;75.97;101802.19;5039249;28;45410;-71
2022/01/20 04:01:32;;;;;;;;;7.00;4.25;;;;;7.55;75.89;101784.78;5039374;28;45517;-71
2022/01/20 04:03:58;;;;;;;;;9.00;7.25;;;;;7.68;75.57;101796.84;5039803;28;45433;-71
2022/01/20 04:06:24;;;;;;;;;38.50;31.75;;;;;7.74;75.79;101799.81;5039082;28;46152;-72
2022/01/20 04:08:50;;;;;;;;;28.00;26.00;;;;;7.76;75.64;101793.00;5039016;28;46441;-72
2022/01/20 04:11:21;;;;;;;;;11.50;8.00;;;;;7.84;75.95;101789.97;5039202;28;45388;-71
2022/01/20 04:13:47;;;;;;;;;8.75;8.00;;;;;7.90;74.90;101790.34;5039558;28;45468;-71
2022/01/20 04:16:19;;;;;;;;;16.75;13.75;;;;;7.92;74.99;101792.25;5038971;28;46192;-71
2022/01/20 04:18:53;;;;;;;;;11.00;11.00;;;;;7.93;75.37;101788.81;5039049;28;45283;-72
2022/01/20 04:21:25;;;;;;;;;12.00;11.75;;;;;7.95;75.12;101781.09;5038953;28;45383;-72
2022/01/20 04:23:51;;;;;;;;;11.25;9.75;;;;;7.90;75.22;101766.94;5038830;28;45488;-71
2022/01/20 04:26:18;;;;;;;;;13.25;9.00;;;;;8.00;75.06;101776.16;5038465;28;45448;-72
2022/01/20 04:28:44;;;;;;;;;7.75;6.00;;;;;7.92;75.29;101763.63;5038486;28;45631;-71
2022/01/20 04:31:09;;;;;;;;;8.75;8.75;;;;;7.98;74.95;101765.69;5038636;28;45483;-72
2022/01/20 04:33:35;;;;;;;;;7.00;5.75;;;;;7.99;75.05;101761.38;5039083;28;45411;-71
2022/01/20 04:36:00;;;;;;;;;3.25;3.25;;;;;8.06;74.68;101764.44;5038957;28;45477;-71
2022/01/20 04:38:26;;;;;;;;;9.00;9.00;;;;;8.11;74.69;101769.91;5038318;28;45334;-71
2022/01/20 04:40:52;;;;;;;;;6.75;6.50;;;;;8.10;74.95;101768.13;5038635;28;45614;-71
2022/01/20 04:43:18;;;;;;;;;7.00;5.25;;;;;8.13;75.14;101770.91;5038806;28;45637;-72
2022/01/20 04:45:54;;;;;;;;;4.00;4.00;;;;;8.12;75.08;101767.41;5038502;28;46223;-72
2022/01/20 04:48:31;;;;;;;;;4.75;4.75;;;;;8.12;75.31;101762.22;5038505;28;45241;-71
2022/01/20 04:59:09;;;;;;;;;31.25;29.00;;;;;8.04;75.12;101776.47;5056070;28;45437;-72
2022/01/20 05:01:35;;;;;;;;;8.00;7.75;;;;;8.04;74.94;101778.16;5056522;28;45263;-72
2022/01/20 05:04:03;;;;;;;;;6.00;5.25;;;;;8.01;75.05;101781.47;5057199;28;45418;-71
2022/01/20 05:06:28;;;;;;;;;8.50;7.50;;;;;8.02;74.95;101772.88;5056521;28;45356;-71
2022/01/20 05:08:54;;;;;;;;;81.50;65.25;;;;;8.01;75.27;101771.06;5056139;28;45306;-71
2022/01/20 05:11:20;;;;;;;;;31.50;29.50;;;;;8.04;75.42;101776.47;5056733;28;45778;-72
2022/01/20 05:13:47;;;;;;;;;34.75;32.50;;;;;8.05;75.40;101775.66;5054078;28;45311;-71
2022/01/20 05:16:12;;;;;;;;;23.50;21.50;;;;;8.06;75.46;101769.66;5056312;28;46146;-70
2022/01/20 05:18:38;;;;;;;;;34.50;26.75;;;;;8.06;75.39;101782.66;5056439;28;45366;-72
2022/01/20 05:21:04;;;;;;;;;27.75;27.00;;;;;8.09;75.44;101784.53;5056851;28;45413;-72
2022/01/20 05:23:29;;;;;;;;;15.50;13.75;;;;;8.09;75.15;101775.03;5057042;28;45426;-72
2022/01/20 05:25:55;;;;;;;;;25.25;24.00;;;;;8.13;75.59;101779.59;5056096;28;45295;-71
2022/01/20 05:28:20;;;;;;;;;6.25;4.75;;;;;8.16;75.42;101785.00;5054659;28;45558;-71
2022/01/20 05:30:46;;;;;;;;;7.50;7.00;;;;;8.21;75.13;101784.38;5056398;28;45664;-72
2022/01/20 05:33:12;;;;;;;;;15.00;12.75;;;;;8.13;75.44;101771.78;5072756;28;45608;-71
2022/01/20 05:35:38;;;;;;;;;56.50;47.25;;;;;8.25;75.04;101775.94;5056292;28;45512;-72
2022/01/20 05:38:04;;;;;;;;;21.25;20.00;;;;;8.28;75.17;101782.22;5056415;28;45447;-72
2022/01/20 05:40:29;;;;;;;;;14.00;14.00;;;;;8.28;75.40;101778.75;5056242;28;45915;-72
2022/01/20 05:42:55;;;;;;;;;12.50;12.00;;;;;8.20;74.97;101774.75;5056055;28;45496;-73
2022/01/20 05:45:22;;;;;;;;;49.50;40.75;;;;;8.22;75.26;101766.25;5052994;28;45554;-74
2022/01/20 05:47:57;;;;;;;;;7.00;7.00;;;;;8.24;74.94;101768.97;5055911;28;45441;-72
2022/01/20 05:50:23;;;;;;;;;7.00;7.00;;;;;8.30;75.20;101775.41;5054038;28;45386;-71
2022/01/20 05:52:48;;;;;;;;;4.75;4.75;;;;;8.36;74.94;101785.28;5056099;28;45192;-72
2022/01/20 05:55:18;;;;;;;;;5.25;5.25;;;;;8.36;74.95;101786.19;5055732;28;46220;-72
2022/01/20 05:57:45;;;;;;;;;4.75;4.25;;;;;8.39;74.99;101785.44;5055788;28;45497;-71
2022/01/20 06:00:16;;;;;;;;;4.50;4.00;;;;;8.41;74.88;101782.94;5055823;28;45442;-75
2022/01/20 06:05:40;;;;;;;;;92.00;80.33;;;;;8.34;74.89;101768.69;5021203;28;45924;-72
2022/01/20 06:08:06;;;;;;;;;21.00;17.75;;;;;8.42;75.04;101793.50;5054207;28;45500;-71
2022/01/20 06:10:32;;;;;;;;;15.50;14.00;;;;;8.43;75.22;101792.66;5055869;28;45787;-72
2022/01/20 06:12:59;;;;;;;;;8.50;8.00;;;;;8.44;75.35;101791.88;5055777;28;45470;-72
2022/01/20 06:15:24;;;;;;;;;9.00;9.00;;;;;8.45;75.42;101785.84;5055472;28;45389;-72
2022/01/20 06:17:50;;;;;;;;;13.50;13.25;;;;;8.46;75.32;101785.06;5055253;28;45433;-72
2022/01/20 06:20:16;;;;;;;;;20.25;17.50;;;;;8.45;75.46;101783.22;5055111;28;45461;-71
2022/01/20 06:22:41;;;;;;;;;29.00;26.25;;;;;8.45;75.63;101783.22;5055784;28;45454;-72
2022/01/20 06:25:07;;;;;;;;;20.75;19.00;;;;;8.45;75.46;101779.75;5055139;28;45430;-71
2022/01/20 06:27:34;;;;;;;;;61.50;46.75;;;;;8.43;75.34;101776.16;5055532;28;45407;-72
2022/01/20 06:30:00;;;;;;;;;24.25;21.25;;;;;8.39;75.14;101769.81;5055703;28;45767;-71
2022/01/20 06:32:26;;;;;;;;;17.50;15.50;;;;;8.53;75.26;101775.88;5055475;28;45409;-71
2022/01/20 06:34:52;;;;;;;;;16.75;13.75;;;;;8.58;75.18;101776.16;5055091;28;45355;-73
2022/01/20 06:37:18;;;;;;;;;14.25;12.00;;;;;8.42;75.26;101754.44;5052628;28;45334;-72
2022/01/20 06:39:43;;;;;;;;;9.50;9.50;;;;;8.50;74.67;101755.78;5055022;28;45365;-71
2022/01/20 06:42:09;;;;;;;;;9.75;9.50;;;;;8.63;74.95;101770.38;5055613;28;45393;-72
2022/01/20 06:44:34;;;;;;;;;9.50;8.25;;;;;8.55;75.02;101758.63;5054961;28;46257;-71
2022/01/20 06:47:00;;;;;;;;;10.75;10.75;;;;;8.66;75.03;101772.28;5055425;28;45453;-71
2022/01/20 06:49:26;;;;;;;;;178.50;148.25;;;;;8.55;75.25;101764.75;5054981;28;45503;-72
2022/01/20 06:51:51;;;;;;;;;10.25;10.00;;;;;8.67;75.36;101782.78;5055313;28;45428;-72
2022/01/20 06:54:17;;;;;;;;;10.25;9.75;;;;;8.69;75.07;101783.75;5049460;28;45953;-73
2022/01/20 06:56:43;;;;;;;;;16.50;16.00;;;;;8.60;75.20;101761.53;5054856;28;45423;-73
2022/01/20 06:59:11;;;;;;;;;10.50;9.00;;;;;8.69;75.04;101777.66;5055163;28;45523;-73
2022/01/20 07:01:37;;;;;;;;;15.00;13.50;;;;;8.62;74.84;101762.50;5055051;28;45493;-71
2022/01/20 07:04:03;;;;;;;;;8.75;7.75;;;;;8.71;74.94;101776.97;5054954;28;46139;-72
2022/01/20 07:06:28;;;;;;;;;27.50;27.50;;;;;8.72;75.32;101772.63;5054831;28;45534;-71
2022/01/20 07:08:54;;;;;;;;;21.00;18.75;;;;;8.75;74.75;101778.00;5056593;28;45434;-71
2022/01/20 07:11:19;;;;;;;;;25.50;23.50;;;;;8.79;74.57;101768.66;5056731;28;45620;-72
2022/01/20 07:13:45;;;;;;;;;37.00;35.00;;;;;8.79;75.20;101777.38;5056509;28;46086;-72
2022/01/20 07:16:10;;;;;;;;;15.25;14.00;;;;;8.66;75.19;101759.25;5056160;28;45222;-72
2022/01/20 07:18:36;;;;;;;;;13.75;10.00;;;;;8.82;74.89;101774.94;5058315;28;45490;-72
2022/01/20 07:21:02;;;;;;;;;14.75;13.00;;;;;8.88;74.53;101777.91;5060393;28;45472;-72
2022/01/20 07:23:27;;;;;;;;;25.50;23.50;;;;;8.93;74.50;101778.16;5058755;28;47652;-73
2022/01/20 07:25:53;;;;;;;;;36.00;30.50;;;;;8.92;74.65;101784.19;5059445;28;45426;-73
2022/01/20 07:28:18;;;;;;;;;36.75;29.00;;;;;8.91;74.61;101782.38;5060202;28;45446;-72
2022/01/20 07:30:44;;;;;;;;;32.75;30.25;;;;;8.88;74.78;101780.50;5060133;28;45458;-74
2022/01/20 07:33:11;;;;;;;;;45.50;39.75;;;;;8.89;75.01;101789.22;5060337;28;46259;-74
2022/01/20 07:35:37;;;;;;;;;42.50;36.75;;;;;8.88;75.17;101790.94;5071705;28;45494;-72
2022/01/20 07:38:04;;;;;;;;;40.75;36.25;;;;;8.88;75.12;101793.53;5078790;28;45216;-72
2022/01/20 07:40:31;;;;;;;;;42.50;37.25;;;;;8.88;75.32;101790.94;5077906;28;44886;-74
2022/01/20 07:42:56;;;;;;;;;35.75;32.75;;;;;8.87;75.05;101791.75;5079108;28;45316;-74
2022/01/20 07:45:22;;;;;;;;;30.00;29.25;;;;;8.83;75.31;101788.88;5078224;28;44740;-74
2022/01/20 07:47:48;;;;;;;;;20.25;18.75;;;;;8.91;75.75;101811.97;5069984;28;45286;-74
2022/01/20 07:50:14;;;;;;;;;18.75;17.00;;;;;8.90;75.49;101804.94;5060170;28;45291;-75
2022/01/20 07:52:39;;;;;;;;;18.50;17.00;;;;;8.87;75.39;101806.47;5059584;28;45368;-73
2022/01/20 07:55:05;;;;;;;;;60.25;47.50;;;;;8.87;75.42;101810.00;5059562;28;45597;-74
2022/01/20 07:57:31;;;;;;;;;43.50;38.50;;;;;8.88;75.76;101806.56;5059902;28;45347;-74
2022/01/20 07:59:57;;;;;;;;;18.00;17.50;;;;;8.88;75.66;101805.69;5047300;28;45453;-73
2022/01/20 08:02:24;;;;;;;;;22.00;21.00;;;;;8.86;75.98;101807.28;5051199;28;45968;-73
2022/01/20 08:04:50;;;;;;;;;72.25;58.00;;;;;8.82;76.13;101802.72;5050766;28;45496;-73
2022/01/20 08:07:15;;;;;;;;;39.25;32.75;;;;;8.85;75.83;101806.38;5046064;28;45430;-74
2022/01/20 08:09:41;;;;;;;;;60.50;44.50;;;;;8.86;76.00;101808.19;5047068;28;45480;-75
2022/01/20 08:12:07;;;;;;;;;35.75;33.75;;;;;8.91;75.82;101809.34;5047250;28;45670;-74
2022/01/20 08:14:33;;;;;;;;;39.50;35.00;;;;;8.95;75.91;101797.38;5046572;28;45421;-77
2022/01/20 08:16:58;;;;;;;;;45.25;35.25;;;;;8.98;75.74;101809.69;5049591;28;45464;-72
2022/01/20 08:19:24;;;;;;;;;33.00;30.75;;;;;9.00;75.63;101805.47;5046827;28;45525;-74
2022/01/20 08:21:49;;;;;;;;;56.75;45.25;;;;;9.02;75.65;101802.13;5047548;28;45500;-74
2022/01/20 08:24:15;;;;;;;;;40.00;35.00;;;;;9.05;75.78;101807.53;5048183;28;45374;-73
2022/01/20 08:26:41;;;;;;;;;28.75;24.00;;;;;9.12;75.58;101811.38;5049573;28;45455;-73
2022/01/20 08:29:06;;;;;;;;;45.50;39.25;;;;;9.18;75.50;101811.72;5051843;28;45477;-72
2022/01/20 08:31:32;;;;;;;;;50.50;41.00;;;;;9.24;75.28;101809.44;5057290;28;45389;-72
2022/01/20 08:33:58;;;;;;;;;54.50;43.00;;;;;9.31;75.18;101808.97;5070828;27;45369;-74
2022/01/20 08:36:23;;;;;;;;;68.50;54.25;;;;;9.37;74.99;101808.44;5046837;28;45921;-73
2022/01/20 08:38:49;;;;;;;;;55.75;45.50;;;;;9.34;75.19;101800.41;5057932;28;46000;-73
2022/01/20 08:41:16;;;;;;;;;30.00;29.50;;;;;9.42;75.00;101806.06;5057339;28;46163;-74
2022/01/20 08:43:41;;;;;;;;;35.00;32.00;;;;;9.44;74.88;101801.81;5057694;28;45447;-73
2022/01/20 08:46:09;;;;;;;;;53.25;43.25;;;;;9.46;75.09;101808.91;5054694;28;45703;-73
2022/01/20 08:48:36;;;;;;;;;51.25;43.25;;;;;9.43;75.26;101807.84;5058102;28;45494;-74
2022/01/20 08:51:05;;;;;;;;;50.50;40.25;;;;;9.40;75.11;101805.97;5057643;28;46270;-73
2022/01/20 08:53:34;;;;;;;;;52.25;41.50;;;;;9.40;75.18;101812.91;5051409;28;45366;-74
2022/01/20 08:56:00;;;;;;;;;34.00;31.00;;;;;9.45;75.30;101804.53;5047329;28;45439;-76
2022/01/20 08:58:26;;;;;;;;;48.50;39.00;;;;;9.51;75.35;101806.53;5048228;28;45648;-76
2022/01/20 09:00:52;;;;;;;;;51.25;42.25;;;;;9.60;75.43;101800.94;5047652;28;45490;-73
2022/01/20 09:03:21;;;;;;;;;70.25;54.50;;;;;9.68;75.52;101803.13;5049953;28;45550;-72
2022/01/20 09:05:46;;;;;;;;;56.75;45.50;;;;;9.72;74.90;101805.09;5058245;28;45492;-73
2022/01/20 09:08:12;;;;;;;;;52.50;44.50;;;;;9.74;75.12;101808.69;5058514;28;45342;-74
2022/01/20 09:10:39;;;;;;;;;66.25;48.00;;;;;9.76;74.88;101806.16;5057817;28;46028;-75
2022/01/20 09:15:50;;;;;;;;;68.25;55.00;;;;;9.99;74.75;101815.22;5058183;28;45365;-74
2022/01/20 09:18:20;;;;;;;;;69.25;54.25;;;;;10.07;74.72;101811.28;5058423;28;45346;-72
2022/01/20 09:20:46;;;;;;;;;72.25;55.50;;;;;10.09;74.12;101804.44;5057964;28;45642;-74
2022/01/20 09:23:12;;;;;;;;;54.50;44.25;;;;;10.18;74.46;101813.56;5057858;28;45345;-73
2022/01/20 09:25:39;;;;;;;;;48.75;40.25;;;;;10.29;74.23;101820.25;5057952;28;45410;-75
2022/01/20 09:28:06;;;;;;;;;24.00;22.25;;;;;10.08;73.45;101755.63;5057975;28;46137;-75
2022/01/20 09:30:34;;;;;;;;;35.00;30.75;;;;;10.70;72.64;101813.63;5057559;28;45506;-76
2022/01/20 09:33:09;;;;;;;;;34.25;31.25;;;;;10.82;72.28;101798.53;5057725;28;45477;-76
2022/01/20 09:35:37;;;;;;;;;24.75;21.25;;;;;11.02;72.00;101817.84;5057885;28;45474;-74
2022/01/20 09:38:05;;;;;;;;;20.00;20.00;;;;;11.01;71.85;101818.66;5057907;28;45302;-74
2022/01/20 09:40:33;;;;;;;;;14.00;14.00;;;;;10.91;71.97;101814.69;5056843;28;45568;-75
2022/01/20 09:43:00;;;;;;;;;17.00;16.75;;;;;10.82;72.48;101809.00;5057632;28;45245;-75
2022/01/20 09:45:27;;;;;;;;;18.00;16.50;;;;;10.70;72.50;101804.09;5057671;28;45271;-76
2022/01/20 09:47:52;;;;;;;;;20.25;20.00;;;;;10.72;72.92;101818.13;5057723;28;45402;-75
2022/01/20 09:50:21;;;;;;;;;13.00;13.00;;;;;10.65;73.18;101825.59;5057235;28;46164;-74
2022/01/20 09:52:48;;;;;;;;;15.00;14.50;;;;;10.60;73.00;101827.94;5057424;28;45519;-75
2022/01/20 09:55:15;;;;;;;;;14.25;13.25;;;;;10.46;73.45;101811.56;5057380;28;45153;-75
2022/01/20 09:57:42;;;;;;;;;14.00;13.75;;;;;10.50;73.50;101830.91;5057902;28;45227;-77
2022/01/20 10:00:15;;;;;;;;;39.00;33.50;;;;;10.48;73.84;101833.44;5057061;28;46148;-75
2022/01/20 10:02:53;;;;;;;;;29.00;29.00;;;;;10.47;73.62;101829.06;5057392;28;45355;-75
2022/01/20 10:05:34;;;;;;;;;28.50;25.75;;;;;10.48;73.54;101825.59;5057159;28;45373;-75
2022/01/20 10:08:18;;;;;;;;;22.00;21.00;;;;;10.55;72.93;101826.84;5057638;28;45589;-76
2022/01/20 10:10:45;;;;;;;;;46.00;38.25;;;;;10.57;73.37;101824.31;5057550;28;46091;-75
2022/01/20 10:13:12;;;;;;;;;22.25;21.00;;;;;10.65;73.55;101828.19;5057398;28;45229;-75
2022/01/20 10:15:38;;;;;;;;;27.50;22.50;;;;;10.69;73.35;101817.06;5057297;28;45342;-78
2022/01/20 10:18:12;;;;;;;;;34.00;31.25;;;;;10.67;73.26;101816.09;5057206;28;45346;-79
2022/01/20 10:20:57;;;;;;;;;23.25;20.75;;;;;10.48;73.09;101780.31;5056235;28;46346;-76
2022/01/20 10:23:39;;;;;;;;;31.25;26.50;;;;;10.61;72.75;101806.22;5056870;28;45566;-75
2022/01/20 10:26:18;;;;;;;;;38.75;35.25;;;;;10.52;72.90;101806.69;5056936;28;45551;-75
2022/01/20 10:29:01;;;;;;;;;37.75;30.25;;;;;10.49;73.04;101810.84;5047277;28;45547;-78
2022/01/20 10:31:43;;;;;;;;;26.50;25.00;;;;;10.56;72.99;101812.94;5053076;28;45549;-76
2022/01/20 10:34:30;;;;;;;;;31.25;27.75;;;;;10.52;73.04;101811.91;5056585;28;45389;-76
2022/01/20 10:37:06;;;;;;;;;26.25;22.50;;;;;10.34;72.99;101787.44;5056793;28;45457;-76
2022/01/20 10:39:37;;;;;;;;;31.75;28.00;;;;;10.49;73.10;101816.06;5057338;28;45560;-76
2022/01/20 10:42:09;;;;;;;;;33.00;25.00;;;;;10.43;73.00;101811.44;5056691;28;46061;-76
2022/01/20 10:44:48;;;;;;;;;43.00;35.25;;;;;10.40;73.45;101808.66;5056419;28;45356;-76
2022/01/20 10:47:19;;;;;;;;;33.75;30.00;;;;;10.23;73.04;101786.00;5057238;28;45202;-77
2022/01/20 10:49:46;;;;;;;;;26.00;24.75;;;;;10.43;72.66;101811.44;5057351;28;45426;-77
2022/01/20 10:52:14;;;;;;;;;27.25;23.25;;;;;10.49;72.93;101816.06;5056840;28;46027;-77
2022/01/20 10:54:46;;;;;;;;;29.25;28.25;;;;;10.55;72.70;101814.66;5060746;28;45288;-76
2022/01/20 10:57:15;;;;;;;;;21.25;21.25;;;;;10.54;72.60;101806.72;5060850;28;45409;-76
2022/01/20 10:59:55;;;;;;;;;37.00;34.50;;;;;10.57;72.58;101803.41;5060523;28;45247;-75
2022/01/20 11:02:26;;;;;;;;;24.25;23.00;;;;;10.50;72.63;101791.72;5058857;28;46072;-76
2022/01/20 11:04:52;;;;;;;;;22.75;20.50;;;;;10.53;72.31;101790.16;5060372;28;45287;-76
2022/01/20 11:07:18;;;;;;;;;24.50;21.75;;;;;10.58;72.46;101807.78;5060475;28;45468;-76
2022/01/20 11:09:46;;;;;;;;;19.50;18.00;;;;;10.45;72.26;101773.22;5060771;28;45415;-76
2022/01/20 11:12:14;;;;;;;;;18.25;14.50;;;;;10.45;71.97;101772.34;5060241;28;45278;-77
2022/01/20 11:14:42;;;;;;;;;23.25;22.50;;;;;10.53;72.36;101797.13;5059993;28;45446;-76
2022/01/20 11:17:07;;;;;;;;;27.00;25.50;;;;;10.35;72.50;101773.59;5060387;28;45468;-77
2022/01/20 11:19:38;;;;;;;;;19.00;18.75;;;;;10.47;72.40;101782.03;5060323;28;45560;-76
2022/01/20 11:22:11;;;;;;;;;14.00;12.75;;;;;10.47;72.61;101791.59;5059955;28;46123;-76
2022/01/20 11:24:37;;;;;;;;;12.25;12.25;;;;;10.50;72.52;101795.25;5059960;28;45298;-76
2022/01/20 11:27:05;;;;;;;;;5.75;5.00;;;;;10.57;72.51;101795.56;5060101;28;45236;-76
2022/01/20 11:30:01;;;;;;;;;17.75;12.00;;;;;10.65;71.84;101784.66;5058778;28;45269;-77
2022/01/20 11:32:29;;;;;;;;;13.25;11.75;;;;;10.60;71.78;101775.69;5054870;28;46426;-76
2022/01/20 11:35:05;;;;;;;;;7.00;7.00;;;;;10.63;71.57;101782.81;5059877;28;45530;-76
2022/01/20 11:37:34;;;;;;;;;16.00;15.00;;;;;10.61;71.69;101780.09;5059992;28;45366;-77
2022/01/20 11:40:26;;;;;;;;;15.00;14.00;;;;;10.58;71.72;101774.72;5075609;28;45560;-76
2022/01/20 11:42:58;;;;;;;;;21.75;20.50;;;;;10.54;71.95;101771.06;5058385;28;45284;-76
2022/01/20 11:45:32;;;;;;;;;16.75;16.25;;;;;10.49;72.46;101775.16;5059668;28;45337;-76
2022/01/20 11:47:58;;;;;;;;;14.25;13.25;;;;;10.42;72.33;101752.16;5059667;28;45491;-76
2022/01/20 11:50:24;;;;;;;;;8.25;8.25;;;;;10.54;71.58;101760.63;5060005;28;45489;-76
2022/01/20 11:52:50;;;;;;;;;11.50;10.25;;;;;10.53;71.81;101761.44;5060016;28;45957;-76
2022/01/20 11:55:18;;;;;;;;;11.00;11.00;;;;;10.57;71.91;101758.97;5059779;28;45549;-76
2022/01/20 11:57:44;;;;;;;;;10.25;9.25;;;;;10.49;71.52;101748.16;5058393;28;45566;-76
2022/01/20 12:00:22;;;;;;;;;16.50;16.50;;;;;10.34;71.76;101743.03;5058241;28;45528;-75
2022/01/20 12:02:48;;;;;;;;;39.75;30.75;;;;;10.38;71.69;101752.81;5058128;28;45457;-78
2022/01/20 12:05:27;;;;;;;;;20.00;18.25;;;;;10.39;71.73;101752.00;5057213;28;45415;-74
2022/01/20 12:08:10;;;;;;;;;56.50;40.00;;;;;10.52;71.54;101743.06;5058086;28;45523;-73
2022/01/20 12:10:38;;;;;;;;;24.75;21.25;;;;;10.67;71.52;101742.94;5058192;28;45482;-74
2022/01/20 12:13:09;;;;;;;;;20.25;18.50;;;;;10.72;71.19;101741.41;5057962;28;45473;-75
2022/01/20 12:15:45;;;;;;;;;23.75;21.75;;;;;10.65;70.59;101719.31;5058084;28;45324;-75
2022/01/20 12:18:13;;;;;;;;;17.50;17.50;;;;;10.67;71.08;101724.63;5058345;28;45512;-74
2022/01/20 12:20:39;;;;;;;;;23.25;21.00;;;;;10.67;71.38;101732.47;5058340;28;45360;-74
2022/01/20 12:23:04;;;;;;;;;19.50;18.00;;;;;10.62;70.96;101716.56;5057739;28;45227;-75
2022/01/20 12:25:33;;;;;;;;;14.75;13.50;;;;;10.67;71.49;101717.69;5057629;28;45398;-73
2022/01/20 12:28:15;;;;;;;;;13.75;12.25;;;;;10.68;71.79;101718.56;5057767;28;45516;-74
2022/01/20 12:30:47;;;;;;;;;12.75;12.25;;;;;10.70;71.93;101722.16;5057915;28;45235;-74
2022/01/20 12:33:15;;;;;;;;;12.00;10.00;;;;;10.67;72.00;101711.56;5057533;28;46085;-74